sensor_id;sensor_type;location;lat;lon;timestamp;P1;durP1;ratioP1;P2;durP2;ratioP2
8349;SDS011;60699;48.946;8.412;2023-02-26T00:00:50;5.50;;;2.78;;
8349;SDS011;60699;48.946;8.412;2023-02-26T00:03:17;3.53;;;2.63;;
8349;SDS011;60699;48.946;8.412;2023-02-26T00:05:45;2.10;;;1.92;;
8349;SDS011;60699;48.946;8.412;2023-02-26T00:08:12;3.85;;;2.80;;
8349;SDS011;60699;48.946;8.412;2023-02-26T00:10:39;3.70;;;2.13;;
8349;SDS011;60699;48.946;8.412;2023-02-26T00:13:07;2.85;;;2.65;;
8349;SDS011;60699;48.946;8.412;2023-02-26T00:15:34;4.07;;;2.67;;
8349;SDS011;60699;48.946;8.412;2023-02-26T00:18:03;4.00;;;2.58;;
8349;SDS011;60699;48.946;8.412;2023-02-26T00:20:32;2.83;;;2.58;;
8349;SDS011;60699;48.946;8.412;2023-02-26T00:23:00;2.70;;;2.50;;
8349;SDS011;60699;48.946;8.412;2023-02-26T00:25:27;6.95;;;3.65;;
8349;SDS011;60699;48.946;8.412;2023-02-26T00:27:55;4.10;;;3.15;;
8349;SDS011;60699;48.946;8.412;2023-02-26T00:30:22;4.20;;;3.40;;
8349;SDS011;60699;48.946;8.412;2023-02-26T00:32:49;2.88;;;2.63;;
8349;SDS011;60699;48.946;8.412;2023-02-26T00:35:17;4.15;;;3.80;;
8349;SDS011;60699;48.946;8.412;2023-02-26T00:37:52;2.92;;;2.67;;
8349;SDS011;60699;48.946;8.412;2023-02-26T00:40:25;4.63;;;3.15;;
8349;SDS011;60699;48.946;8.412;2023-02-26T00:42:54;2.03;;;1.92;;
8349;SDS011;60699;48.946;8.412;2023-02-26T00:45:21;5.35;;;2.80;;
8349;SDS011;60699;48.946;8.412;2023-02-26T00:47:49;2.50;;;2.40;;
8349;SDS011;60699;48.946;8.412;2023-02-26T00:50:18;3.30;;;3.00;;
8349;SDS011;60699;48.946;8.412;2023-02-26T00:52:49;4.55;;;2.53;;
8349;SDS011;60699;48.946;8.412;2023-02-26T00:55:19;4.43;;;2.97;;
8349;SDS011;60699;48.946;8.412;2023-02-26T00:57:48;2.92;;;2.72;;
8349;SDS011;60699;48.946;8.412;2023-02-26T01:00:15;2.35;;;2.25;;
8349;SDS011;60699;48.946;8.412;2023-02-26T01:02:42;4.03;;;2.90;;
8349;SDS011;60699;48.946;8.412;2023-02-26T01:05:10;2.50;;;2.40;;
8349;SDS011;60699;48.946;8.412;2023-02-26T01:07:39;2.63;;;2.42;;
8349;SDS011;60699;48.946;8.412;2023-02-26T01:10:07;4.10;;;2.30;;
8349;SDS011;60699;48.946;8.412;2023-02-26T01:12:35;2.40;;;2.05;;
8349;SDS011;60699;48.946;8.412;2023-02-26T01:15:04;3.42;;;3.13;;
8349;SDS011;60699;48.946;8.412;2023-02-26T01:17:32;2.88;;;2.47;;
8349;SDS011;60699;48.946;8.412;2023-02-26T01:20:03;2.70;;;2.50;;
8349;SDS011;60699;48.946;8.412;2023-02-26T01:22:32;2.60;;;2.40;;
8349;SDS011;60699;48.946;8.412;2023-02-26T01:25:01;2.45;;;2.25;;
8349;SDS011;60699;48.946;8.412;2023-02-26T01:27:29;2.35;;;2.15;;
8349;SDS011;60699;48.946;8.412;2023-02-26T01:29:56;7.65;;;2.40;;
8349;SDS011;60699;48.946;8.412;2023-02-26T01:32:25;4.28;;;2.85;;
8349;SDS011;60699;48.946;8.412;2023-02-26T01:34:54;2.20;;;2.00;;
8349;SDS011;60699;48.946;8.412;2023-02-26T01:37:25;5.47;;;2.75;;
8349;SDS011;60699;48.946;8.412;2023-02-26T01:40:02;3.00;;;2.80;;
8349;SDS011;60699;48.946;8.412;2023-02-26T01:42:34;2.70;;;2.50;;
8349;SDS011;60699;48.946;8.412;2023-02-26T01:45:02;5.07;;;2.50;;
8349;SDS011;60699;48.946;8.412;2023-02-26T01:47:34;4.63;;;3.00;;
8349;SDS011;60699;48.946;8.412;2023-02-26T01:50:09;2.30;;;2.10;;
8349;SDS011;60699;48.946;8.412;2023-02-26T01:55:25;2.85;;;1.90;;
8349;SDS011;60699;48.946;8.412;2023-02-26T01:57:53;3.85;;;2.22;;
8349;SDS011;60699;48.946;8.412;2023-02-26T02:00:21;2.70;;;2.50;;
8349;SDS011;60699;48.946;8.412;2023-02-26T02:02:50;2.75;;;2.55;;
8349;SDS011;60699;48.946;8.412;2023-02-26T02:05:18;2.42;;;2.22;;
8349;SDS011;60699;48.946;8.412;2023-02-26T02:07:46;4.53;;;2.40;;
8349;SDS011;60699;48.946;8.412;2023-02-26T02:10:14;2.95;;;2.75;;
8349;SDS011;60699;48.946;8.412;2023-02-26T02:12:43;3.55;;;2.88;;
8349;SDS011;60699;48.946;8.412;2023-02-26T02:15:14;3.10;;;2.60;;
8349;SDS011;60699;48.946;8.412;2023-02-26T02:17:44;2.70;;;2.50;;
8349;SDS011;60699;48.946;8.412;2023-02-26T02:20:25;2.42;;;2.22;;
8349;SDS011;60699;48.946;8.412;2023-02-26T02:23:00;3.47;;;2.88;;
8349;SDS011;60699;48.946;8.412;2023-02-26T02:25:34;3.92;;;3.00;;
8349;SDS011;60699;48.946;8.412;2023-02-26T02:28:09;1.98;;;1.85;;
8349;SDS011;60699;48.946;8.412;2023-02-26T02:30:51;2.60;;;2.45;;
8349;SDS011;60699;48.946;8.412;2023-02-26T02:33:21;3.03;;;2.67;;
8349;SDS011;60699;48.946;8.412;2023-02-26T02:35:49;3.75;;;3.10;;
8349;SDS011;60699;48.946;8.412;2023-02-26T02:38:17;2.70;;;2.50;;
8349;SDS011;60699;48.946;8.412;2023-02-26T02:40:47;2.83;;;2.60;;
8349;SDS011;60699;48.946;8.412;2023-02-26T02:43:15;2.88;;;2.65;;
8349;SDS011;60699;48.946;8.412;2023-02-26T02:45:43;2.58;;;2.38;;
8349;SDS011;60699;48.946;8.412;2023-02-26T02:48:15;4.32;;;2.10;;
8349;SDS011;60699;48.946;8.412;2023-02-26T02:50:44;3.20;;;2.28;;
8349;SDS011;60699;48.946;8.412;2023-02-26T02:53:14;2.85;;;2.55;;
8349;SDS011;60699;48.946;8.412;2023-02-26T02:55:45;5.80;;;2.95;;
8349;SDS011;60699;48.946;8.412;2023-02-26T02:58:14;2.70;;;2.50;;
8349;SDS011;60699;48.946;8.412;2023-02-26T03:00:43;2.97;;;2.65;;
8349;SDS011;60699;48.946;8.412;2023-02-26T03:03:15;2.70;;;2.60;;
8349;SDS011;60699;48.946;8.412;2023-02-26T03:05:44;2.42;;;2.22;;
8349;SDS011;60699;48.946;8.412;2023-02-26T03:08:14;5.80;;;2.83;;
8349;SDS011;60699;48.946;8.412;2023-02-26T03:10:43;3.40;;;3.03;;
8349;SDS011;60699;48.946;8.412;2023-02-26T03:13:13;3.85;;;2.10;;
8349;SDS011;60699;48.946;8.412;2023-02-26T03:15:41;2.63;;;2.42;;
8349;SDS011;60699;48.946;8.412;2023-02-26T03:18:13;2.67;;;2.47;;
8349;SDS011;60699;48.946;8.412;2023-02-26T03:20:47;2.78;;;2.17;;
8349;SDS011;60699;48.946;8.412;2023-02-26T03:23:20;6.95;;;2.45;;
8349;SDS011;60699;48.946;8.412;2023-02-26T03:25:48;2.70;;;2.60;;
8349;SDS011;60699;48.946;8.412;2023-02-26T03:28:18;4.63;;;2.58;;
8349;SDS011;60699;48.946;8.412;2023-02-26T03:30:51;4.20;;;2.90;;
8349;SDS011;60699;48.946;8.412;2023-02-26T03:33:21;8.48;;;2.08;;
8349;SDS011;60699;48.946;8.412;2023-02-26T03:35:51;3.50;;;2.63;;
8349;SDS011;60699;48.946;8.412;2023-02-26T03:38:22;7.18;;;2.90;;
8349;SDS011;60699;48.946;8.412;2023-02-26T03:40:51;3.70;;;1.73;;
8349;SDS011;60699;48.946;8.412;2023-02-26T03:43:21;3.00;;;2.50;;
8349;SDS011;60699;48.946;8.412;2023-02-26T03:45:50;3.33;;;2.70;;
8349;SDS011;60699;48.946;8.412;2023-02-26T03:48:19;2.92;;;2.33;;
8349;SDS011;60699;48.946;8.412;2023-02-26T03:50:48;3.45;;;3.25;;
8349;SDS011;60699;48.946;8.412;2023-02-26T03:53:19;3.35;;;2.70;;
8349;SDS011;60699;48.946;8.412;2023-02-26T03:55:49;2.80;;;2.35;;
8349;SDS011;60699;48.946;8.412;2023-02-26T03:58:16;3.30;;;2.75;;
8349;SDS011;60699;48.946;8.412;2023-02-26T04:00:45;4.88;;;2.80;;
8349;SDS011;60699;48.946;8.412;2023-02-26T04:03:16;3.67;;;3.10;;
8349;SDS011;60699;48.946;8.412;2023-02-26T04:05:46;3.15;;;2.85;;
8349;SDS011;60699;48.946;8.412;2023-02-26T04:08:14;2.53;;;2.20;;
8349;SDS011;60699;48.946;8.412;2023-02-26T04:10:44;2.35;;;2.05;;
8349;SDS011;60699;48.946;8.412;2023-02-26T04:13:13;2.50;;;2.30;;
8349;SDS011;60699;48.946;8.412;2023-02-26T04:15:40;3.53;;;3.25;;
8349;SDS011;60699;48.946;8.412;2023-02-26T04:18:07;3.22;;;2.97;;
8349;SDS011;60699;48.946;8.412;2023-02-26T04:20:34;2.78;;;2.60;;
8349;SDS011;60699;48.946;8.412;2023-02-26T04:23:01;2.83;;;2.63;;
8349;SDS011;60699;48.946;8.412;2023-02-26T04:25:28;5.07;;;2.72;;
8349;SDS011;60699;48.946;8.412;2023-02-26T04:27:56;3.72;;;2.70;;
8349;SDS011;60699;48.946;8.412;2023-02-26T04:30:23;2.47;;;2.28;;
8349;SDS011;60699;48.946;8.412;2023-02-26T04:32:50;2.97;;;2.78;;
8349;SDS011;60699;48.946;8.412;2023-02-26T04:35:17;6.90;;;2.70;;
8349;SDS011;60699;48.946;8.412;2023-02-26T04:37:44;4.75;;;2.25;;
8349;SDS011;60699;48.946;8.412;2023-02-26T04:40:11;4.53;;;2.78;;
8349;SDS011;60699;48.946;8.412;2023-02-26T04:42:38;3.38;;;2.65;;
8349;SDS011;60699;48.946;8.412;2023-02-26T04:45:07;2.60;;;2.40;;
8349;SDS011;60699;48.946;8.412;2023-02-26T04:47:34;2.83;;;2.50;;
8349;SDS011;60699;48.946;8.412;2023-02-26T04:50:01;2.80;;;2.60;;
8349;SDS011;60699;48.946;8.412;2023-02-26T04:52:29;3.60;;;3.30;;
8349;SDS011;60699;48.946;8.412;2023-02-26T04:54:56;4.65;;;3.47;;
8349;SDS011;60699;48.946;8.412;2023-02-26T04:57:23;2.92;;;2.72;;
8349;SDS011;60699;48.946;8.412;2023-02-26T04:59:50;3.00;;;2.80;;
8349;SDS011;60699;48.946;8.412;2023-02-26T05:02:18;6.32;;;2.70;;
8349;SDS011;60699;48.946;8.412;2023-02-26T05:04:45;4.88;;;2.72;;
8349;SDS011;60699;48.946;8.412;2023-02-26T05:07:12;3.85;;;3.45;;
8349;SDS011;60699;48.946;8.412;2023-02-26T05:09:39;3.03;;;2.75;;
8349;SDS011;60699;48.946;8.412;2023-02-26T05:12:06;6.63;;;3.17;;
8349;SDS011;60699;48.946;8.412;2023-02-26T05:14:33;3.13;;;2.92;;
8349;SDS011;60699;48.946;8.412;2023-02-26T05:17:00;4.45;;;2.65;;
8349;SDS011;60699;48.946;8.412;2023-02-26T05:19:28;4.72;;;4.32;;
8349;SDS011;60699;48.946;8.412;2023-02-26T05:21:55;3.80;;;3.22;;
8349;SDS011;60699;48.946;8.412;2023-02-26T05:24:22;2.80;;;2.55;;
8349;SDS011;60699;48.946;8.412;2023-02-26T05:26:49;4.95;;;2.35;;
8349;SDS011;60699;48.946;8.412;2023-02-26T05:29:16;5.00;;;2.83;;
8349;SDS011;60699;48.946;8.412;2023-02-26T05:31:44;4.35;;;2.97;;
8349;SDS011;60699;48.946;8.412;2023-02-26T05:34:11;3.92;;;3.00;;
8349;SDS011;60699;48.946;8.412;2023-02-26T05:36:39;3.72;;;2.70;;
8349;SDS011;60699;48.946;8.412;2023-02-26T05:39:06;3.08;;;2.88;;
8349;SDS011;60699;48.946;8.412;2023-02-26T05:41:34;3.08;;;2.88;;
8349;SDS011;60699;48.946;8.412;2023-02-26T05:44:01;3.90;;;3.22;;
8349;SDS011;60699;48.946;8.412;2023-02-26T05:46:28;3.25;;;2.95;;
8349;SDS011;60699;48.946;8.412;2023-02-26T05:48:55;2.22;;;2.10;;
8349;SDS011;60699;48.946;8.412;2023-02-26T05:51:22;3.00;;;2.30;;
8349;SDS011;60699;48.946;8.412;2023-02-26T05:53:51;3.80;;;3.33;;
8349;SDS011;60699;48.946;8.412;2023-02-26T05:56:18;2.35;;;2.00;;
8349;SDS011;60699;48.946;8.412;2023-02-26T05:58:45;5.60;;;2.97;;
8349;SDS011;60699;48.946;8.412;2023-02-26T06:01:12;3.00;;;2.80;;
8349;SDS011;60699;48.946;8.412;2023-02-26T06:03:39;3.35;;;2.70;;
8349;SDS011;60699;48.946;8.412;2023-02-26T06:06:08;3.35;;;3.05;;
8349;SDS011;60699;48.946;8.412;2023-02-26T06:08:35;3.65;;;2.58;;
8349;SDS011;60699;48.946;8.412;2023-02-26T06:11:04;2.95;;;2.72;;
8349;SDS011;60699;48.946;8.412;2023-02-26T06:13:31;4.53;;;3.05;;
8349;SDS011;60699;48.946;8.412;2023-02-26T06:15:58;4.47;;;2.60;;
8349;SDS011;60699;48.946;8.412;2023-02-26T06:18:25;5.22;;;2.40;;
8349;SDS011;60699;48.946;8.412;2023-02-26T06:20:52;5.68;;;3.33;;
8349;SDS011;60699;48.946;8.412;2023-02-26T06:23:19;3.10;;;2.80;;
8349;SDS011;60699;48.946;8.412;2023-02-26T06:25:46;2.53;;;2.30;;
8349;SDS011;60699;48.946;8.412;2023-02-26T06:28:14;2.60;;;2.40;;
8349;SDS011;60699;48.946;8.412;2023-02-26T06:30:41;3.00;;;2.80;;
8349;SDS011;60699;48.946;8.412;2023-02-26T06:33:08;6.95;;;2.95;;
8349;SDS011;60699;48.946;8.412;2023-02-26T06:35:35;3.42;;;2.45;;
8349;SDS011;60699;48.946;8.412;2023-02-26T06:38:03;7.43;;;3.45;;
8349;SDS011;60699;48.946;8.412;2023-02-26T06:40:30;3.13;;;2.72;;
8349;SDS011;60699;48.946;8.412;2023-02-26T06:42:57;3.47;;;3.00;;
8349;SDS011;60699;48.946;8.412;2023-02-26T06:45:26;7.20;;;3.13;;
8349;SDS011;60699;48.946;8.412;2023-02-26T06:47:53;3.22;;;2.97;;
8349;SDS011;60699;48.946;8.412;2023-02-26T06:50:20;4.07;;;3.67;;
8349;SDS011;60699;48.946;8.412;2023-02-26T06:52:47;3.08;;;2.88;;
8349;SDS011;60699;48.946;8.412;2023-02-26T06:55:15;3.20;;;2.45;;
8349;SDS011;60699;48.946;8.412;2023-02-26T06:57:42;3.47;;;3.20;;
8349;SDS011;60699;48.946;8.412;2023-02-26T07:00:09;7.72;;;3.80;;
8349;SDS011;60699;48.946;8.412;2023-02-26T07:02:38;3.58;;;2.83;;
8349;SDS011;60699;48.946;8.412;2023-02-26T07:05:05;3.55;;;3.00;;
8349;SDS011;60699;48.946;8.412;2023-02-26T07:07:32;4.30;;;3.30;;
8349;SDS011;60699;48.946;8.412;2023-02-26T07:09:59;4.22;;;3.83;;
8349;SDS011;60699;48.946;8.412;2023-02-26T07:12:26;4.53;;;4.15;;
8349;SDS011;60699;48.946;8.412;2023-02-26T07:14:53;3.30;;;3.00;;
8349;SDS011;60699;48.946;8.412;2023-02-26T07:17:20;3.90;;;2.95;;
8349;SDS011;60699;48.946;8.412;2023-02-26T07:19:49;3.47;;;3.10;;
8349;SDS011;60699;48.946;8.412;2023-02-26T07:22:17;11.77;;;4.50;;
8349;SDS011;60699;48.946;8.412;2023-02-26T07:24:44;4.40;;;2.92;;
8349;SDS011;60699;48.946;8.412;2023-02-26T07:27:11;4.20;;;3.90;;
8349;SDS011;60699;48.946;8.412;2023-02-26T07:29:38;7.90;;;3.33;;
8349;SDS011;60699;48.946;8.412;2023-02-26T07:32:05;2.75;;;2.55;;
8349;SDS011;60699;48.946;8.412;2023-02-26T07:34:32;3.00;;;2.80;;
8349;SDS011;60699;48.946;8.412;2023-02-26T07:37:01;3.67;;;2.28;;
8349;SDS011;60699;48.946;8.412;2023-02-26T07:39:28;5.45;;;3.40;;
8349;SDS011;60699;48.946;8.412;2023-02-26T07:41:55;2.83;;;2.63;;
8349;SDS011;60699;48.946;8.412;2023-02-26T07:44:22;5.10;;;3.10;;
8349;SDS011;60699;48.946;8.412;2023-02-26T07:46:49;3.53;;;3.22;;
8349;SDS011;60699;48.946;8.412;2023-02-26T07:49:16;4.32;;;2.97;;
8349;SDS011;60699;48.946;8.412;2023-02-26T07:51:44;4.60;;;3.22;;
8349;SDS011;60699;48.946;8.412;2023-02-26T07:54:13;3.38;;;2.83;;
8349;SDS011;60699;48.946;8.412;2023-02-26T07:56:40;3.22;;;2.50;;
8349;SDS011;60699;48.946;8.412;2023-02-26T07:59:09;6.03;;;3.08;;
8349;SDS011;60699;48.946;8.412;2023-02-26T08:01:36;4.60;;;3.10;;
8349;SDS011;60699;48.946;8.412;2023-02-26T08:04:03;6.03;;;3.05;;
8349;SDS011;60699;48.946;8.412;2023-02-26T08:06:30;4.70;;;3.30;;
8349;SDS011;60699;48.946;8.412;2023-02-26T08:08:58;3.55;;;3.10;;
8349;SDS011;60699;48.946;8.412;2023-02-26T08:11:27;4.05;;;2.45;;
8349;SDS011;60699;48.946;8.412;2023-02-26T08:13:56;3.25;;;2.15;;
8349;SDS011;60699;48.946;8.412;2023-02-26T08:16:24;2.85;;;2.10;;
8349;SDS011;60699;48.946;8.412;2023-02-26T08:18:51;4.15;;;2.90;;
8349;SDS011;60699;48.946;8.412;2023-02-26T08:21:18;2.70;;;2.50;;
8349;SDS011;60699;48.946;8.412;2023-02-26T08:23:45;2.72;;;2.53;;
8349;SDS011;60699;48.946;8.412;2023-02-26T08:26:13;3.13;;;2.83;;
8349;SDS011;60699;48.946;8.412;2023-02-26T08:28:41;7.70;;;2.70;;
8349;SDS011;60699;48.946;8.412;2023-02-26T08:31:10;4.85;;;3.60;;
8349;SDS011;60699;48.946;8.412;2023-02-26T08:33:37;2.53;;;2.42;;
8349;SDS011;60699;48.946;8.412;2023-02-26T08:36:05;6.13;;;3.13;;
8349;SDS011;60699;48.946;8.412;2023-02-26T08:38:32;6.10;;;3.13;;
8349;SDS011;60699;48.946;8.412;2023-02-26T08:40:59;5.32;;;3.47;;
8349;SDS011;60699;48.946;8.412;2023-02-26T08:43:26;4.00;;;2.40;;
8349;SDS011;60699;48.946;8.412;2023-02-26T08:45:55;3.38;;;2.80;;
8349;SDS011;60699;48.946;8.412;2023-02-26T08:48:23;3.80;;;3.13;;
8349;SDS011;60699;48.946;8.412;2023-02-26T08:50:50;3.65;;;3.10;;
8349;SDS011;60699;48.946;8.412;2023-02-26T08:53:17;2.70;;;2.25;;
8349;SDS011;60699;48.946;8.412;2023-02-26T08:55:46;2.47;;;2.28;;
8349;SDS011;60699;48.946;8.412;2023-02-26T08:58:13;3.20;;;2.72;;
8349;SDS011;60699;48.946;8.412;2023-02-26T09:00:40;2.90;;;2.67;;
8349;SDS011;60699;48.946;8.412;2023-02-26T09:03:08;3.10;;;2.80;;
8349;SDS011;60699;48.946;8.412;2023-02-26T09:05:35;4.25;;;3.55;;
8349;SDS011;60699;48.946;8.412;2023-02-26T09:08:03;2.17;;;2.05;;
8349;SDS011;60699;48.946;8.412;2023-02-26T09:10:30;2.40;;;2.20;;
8349;SDS011;60699;48.946;8.412;2023-02-26T09:12:57;2.90;;;2.70;;
8349;SDS011;60699;48.946;8.412;2023-02-26T09:15:24;5.05;;;3.00;;
8349;SDS011;60699;48.946;8.412;2023-02-26T09:17:51;3.72;;;2.63;;
8349;SDS011;60699;48.946;8.412;2023-02-26T09:20:20;2.40;;;2.20;;
8349;SDS011;60699;48.946;8.412;2023-02-26T09:22:47;7.82;;;2.30;;
8349;SDS011;60699;48.946;8.412;2023-02-26T09:25:15;2.17;;;2.08;;
8349;SDS011;60699;48.946;8.412;2023-02-26T09:27:42;2.10;;;2.00;;
8349;SDS011;60699;48.946;8.412;2023-02-26T09:30:09;14.13;;;4.57;;
8349;SDS011;60699;48.946;8.412;2023-02-26T09:32:36;2.50;;;2.40;;
8349;SDS011;60699;48.946;8.412;2023-02-26T09:35:04;2.47;;;2.20;;
8349;SDS011;60699;48.946;8.412;2023-02-26T09:37:32;1.98;;;1.80;;
8349;SDS011;60699;48.946;8.412;2023-02-26T09:39:59;2.80;;;2.08;;
8349;SDS011;60699;48.946;8.412;2023-02-26T09:42:43;2.28;;;2.08;;
8349;SDS011;60699;48.946;8.412;2023-02-26T09:45:11;2.13;;;2.03;;
8349;SDS011;60699;48.946;8.412;2023-02-26T09:47:41;2.53;;;2.33;;
8349;SDS011;60699;48.946;8.412;2023-02-26T09:50:12;2.85;;;2.20;;
8349;SDS011;60699;48.946;8.412;2023-02-26T09:52:44;1.80;;;1.70;;
8349;SDS011;60699;48.946;8.412;2023-02-26T09:55:13;1.85;;;1.73;;
8349;SDS011;60699;48.946;8.412;2023-02-26T09:57:43;2.40;;;2.20;;
8349;SDS011;60699;48.946;8.412;2023-02-26T10:00:16;2.35;;;2.15;;
8349;SDS011;60699;48.946;8.412;2023-02-26T10:02:45;2.20;;;2.03;;
8349;SDS011;60699;48.946;8.412;2023-02-26T10:05:16;2.00;;;1.85;;
8349;SDS011;60699;48.946;8.412;2023-02-26T10:07:46;1.58;;;1.48;;
8349;SDS011;60699;48.946;8.412;2023-02-26T10:10:17;3.33;;;1.65;;
8349;SDS011;60699;48.946;8.412;2023-02-26T10:12:45;2.40;;;1.95;;
8349;SDS011;60699;48.946;8.412;2023-02-26T10:15:14;2.03;;;1.92;;
8349;SDS011;60699;48.946;8.412;2023-02-26T10:17:45;3.80;;;1.98;;
8349;SDS011;60699;48.946;8.412;2023-02-26T10:20:16;2.33;;;2.10;;
8349;SDS011;60699;48.946;8.412;2023-02-26T10:22:47;1.95;;;1.80;;
8349;SDS011;60699;48.946;8.412;2023-02-26T10:25:20;2.45;;;1.98;;
8349;SDS011;60699;48.946;8.412;2023-02-26T10:27:50;1.55;;;1.45;;
8349;SDS011;60699;48.946;8.412;2023-02-26T10:30:21;2.35;;;2.15;;
8349;SDS011;60699;48.946;8.412;2023-02-26T10:32:54;1.98;;;1.83;;
8349;SDS011;60699;48.946;8.412;2023-02-26T10:35:22;1.38;;;1.27;;
8349;SDS011;60699;48.946;8.412;2023-02-26T10:37:52;2.00;;;1.80;;
8349;SDS011;60699;48.946;8.412;2023-02-26T10:40:23;1.83;;;1.70;;
8349;SDS011;60699;48.946;8.412;2023-02-26T10:42:54;6.53;;;4.32;;
8349;SDS011;60699;48.946;8.412;2023-02-26T10:45:25;4.85;;;2.20;;
8349;SDS011;60699;48.946;8.412;2023-02-26T10:47:56;2.63;;;2.42;;
8349;SDS011;60699;48.946;8.412;2023-02-26T10:50:25;2.72;;;2.25;;
8349;SDS011;60699;48.946;8.412;2023-02-26T10:52:53;5.47;;;2.20;;
8349;SDS011;60699;48.946;8.412;2023-02-26T10:55:29;1.85;;;1.75;;
8349;SDS011;60699;48.946;8.412;2023-02-26T10:58:00;1.85;;;1.75;;
8349;SDS011;60699;48.946;8.412;2023-02-26T11:00:28;1.95;;;1.80;;
8349;SDS011;60699;48.946;8.412;2023-02-26T11:02:56;2.25;;;2.00;;
8349;SDS011;60699;48.946;8.412;2023-02-26T11:05:23;2.00;;;1.45;;
8349;SDS011;60699;48.946;8.412;2023-02-26T11:07:54;1.65;;;1.55;;
8349;SDS011;60699;48.946;8.412;2023-02-26T11:10:22;1.60;;;1.50;;
8349;SDS011;60699;48.946;8.412;2023-02-26T11:12:50;2.33;;;1.67;;
8349;SDS011;60699;48.946;8.412;2023-02-26T11:15:18;2.25;;;2.15;;
8349;SDS011;60699;48.946;8.412;2023-02-26T11:17:46;1.92;;;1.80;;
8349;SDS011;60699;48.946;8.412;2023-02-26T11:20:15;1.40;;;1.30;;
8349;SDS011;60699;48.946;8.412;2023-02-26T11:22:45;1.55;;;1.45;;
8349;SDS011;60699;48.946;8.412;2023-02-26T11:25:13;2.28;;;1.40;;
8349;SDS011;60699;48.946;8.412;2023-02-26T11:27:42;1.40;;;1.30;;
8349;SDS011;60699;48.946;8.412;2023-02-26T11:30:14;2.08;;;1.88;;
8349;SDS011;60699;48.946;8.412;2023-02-26T11:32:42;1.50;;;1.40;;
8349;SDS011;60699;48.946;8.412;2023-02-26T11:35:12;4.20;;;2.00;;
8349;SDS011;60699;48.946;8.412;2023-02-26T11:37:40;1.95;;;1.85;;
8349;SDS011;60699;48.946;8.412;2023-02-26T11:40:12;1.20;;;1.20;;
8349;SDS011;60699;48.946;8.412;2023-02-26T11:42:42;2.28;;;1.60;;
8349;SDS011;60699;48.946;8.412;2023-02-26T11:45:11;1.52;;;1.48;;
8349;SDS011;60699;48.946;8.412;2023-02-26T11:47:40;1.80;;;1.70;;
8349;SDS011;60699;48.946;8.412;2023-02-26T11:50:10;1.75;;;1.65;;
8349;SDS011;60699;48.946;8.412;2023-02-26T11:52:39;1.77;;;1.67;;
8349;SDS011;60699;48.946;8.412;2023-02-26T11:55:16;1.67;;;1.55;;
8349;SDS011;60699;48.946;8.412;2023-02-26T11:57:44;1.50;;;1.50;;
8349;SDS011;60699;48.946;8.412;2023-02-26T12:00:18;2.90;;;1.90;;
8349;SDS011;60699;48.946;8.412;2023-02-26T12:02:46;2.63;;;2.42;;
8349;SDS011;60699;48.946;8.412;2023-02-26T12:05:14;2.28;;;2.17;;
8349;SDS011;60699;48.946;8.412;2023-02-26T12:07:41;1.70;;;1.60;;
8349;SDS011;60699;48.946;8.412;2023-02-26T12:10:12;1.75;;;1.50;;
8349;SDS011;60699;48.946;8.412;2023-02-26T12:12:47;1.70;;;1.60;;
8349;SDS011;60699;48.946;8.412;2023-02-26T12:15:20;1.80;;;1.70;;
8349;SDS011;60699;48.946;8.412;2023-02-26T12:20:37;2.30;;;2.00;;
8349;SDS011;60699;48.946;8.412;2023-02-26T12:23:23;1.35;;;1.35;;
8349;SDS011;60699;48.946;8.412;2023-02-26T12:26:01;1.65;;;1.55;;
8349;SDS011;60699;48.946;8.412;2023-02-26T12:28:45;1.70;;;1.60;;
8349;SDS011;60699;48.946;8.412;2023-02-26T12:31:27;5.07;;;1.55;;
8349;SDS011;60699;48.946;8.412;2023-02-26T12:33:58;1.80;;;1.70;;
8349;SDS011;60699;48.946;8.412;2023-02-26T12:36:34;1.42;;;1.35;;
8349;SDS011;60699;48.946;8.412;2023-02-26T12:39:06;1.83;;;1.73;;
8349;SDS011;60699;48.946;8.412;2023-02-26T12:41:40;1.83;;;1.70;;
8349;SDS011;60699;48.946;8.412;2023-02-26T12:44:13;2.05;;;1.92;;
8349;SDS011;60699;48.946;8.412;2023-02-26T12:46:46;1.40;;;1.30;;
8349;SDS011;60699;48.946;8.412;2023-02-26T12:52:07;2.10;;;2.00;;
8349;SDS011;60699;48.946;8.412;2023-02-26T12:54:50;1.33;;;1.23;;
8349;SDS011;60699;48.946;8.412;2023-02-26T12:57:40;1.60;;;1.50;;
8349;SDS011;60699;48.946;8.412;2023-02-26T13:00:31;2.00;;;1.90;;
8349;SDS011;60699;48.946;8.412;2023-02-26T13:03:12;2.05;;;1.73;;
8349;SDS011;60699;48.946;8.412;2023-02-26T13:05:51;1.65;;;1.55;;
8349;SDS011;60699;48.946;8.412;2023-02-26T13:08:20;1.50;;;1.40;;
8349;SDS011;60699;48.946;8.412;2023-02-26T13:10:51;1.33;;;1.33;;
8349;SDS011;60699;48.946;8.412;2023-02-26T13:13:33;1.60;;;1.50;;
8349;SDS011;60699;48.946;8.412;2023-02-26T13:16:07;1.80;;;1.70;;
8349;SDS011;60699;48.946;8.412;2023-02-26T13:18:38;1.48;;;1.38;;
8349;SDS011;60699;48.946;8.412;2023-02-26T13:21:08;1.80;;;1.70;;
8349;SDS011;60699;48.946;8.412;2023-02-26T13:23:39;1.35;;;1.25;;
8349;SDS011;60699;48.946;8.412;2023-02-26T13:26:09;1.30;;;1.30;;
8349;SDS011;60699;48.946;8.412;2023-02-26T13:28:38;3.10;;;1.52;;
8349;SDS011;60699;48.946;8.412;2023-02-26T13:31:09;1.17;;;1.17;;
8349;SDS011;60699;48.946;8.412;2023-02-26T13:33:37;1.70;;;1.60;;
8349;SDS011;60699;48.946;8.412;2023-02-26T13:36:05;1.88;;;1.77;;
8349;SDS011;60699;48.946;8.412;2023-02-26T13:38:34;2.88;;;1.30;;
8349;SDS011;60699;48.946;8.412;2023-02-26T13:41:06;1.30;;;1.20;;
8349;SDS011;60699;48.946;8.412;2023-02-26T13:43:46;7.53;;;1.70;;
8349;SDS011;60699;48.946;8.412;2023-02-26T13:46:20;1.58;;;1.48;;
8349;SDS011;60699;48.946;8.412;2023-02-26T13:48:50;1.75;;;1.38;;
8349;SDS011;60699;48.946;8.412;2023-02-26T13:51:24;1.77;;;1.67;;
8349;SDS011;60699;48.946;8.412;2023-02-26T13:53:54;1.38;;;1.38;;
8349;SDS011;60699;48.946;8.412;2023-02-26T13:59:25;1.83;;;1.65;;
8349;SDS011;60699;48.946;8.412;2023-02-26T14:01:57;1.67;;;1.58;;
8349;SDS011;60699;48.946;8.412;2023-02-26T14:04:27;1.88;;;1.77;;
8349;SDS011;60699;48.946;8.412;2023-02-26T14:06:55;1.70;;;1.60;;
8349;SDS011;60699;48.946;8.412;2023-02-26T14:09:33;1.30;;;1.30;;
8349;SDS011;60699;48.946;8.412;2023-02-26T14:12:01;1.70;;;1.60;;
8349;SDS011;60699;48.946;8.412;2023-02-26T14:14:30;1.50;;;1.40;;
8349;SDS011;60699;48.946;8.412;2023-02-26T14:22:34;1.52;;;1.42;;
8349;SDS011;60699;48.946;8.412;2023-02-26T14:25:10;1.10;;;1.10;;
8349;SDS011;60699;48.946;8.412;2023-02-26T14:27:39;1.52;;;1.42;;
8349;SDS011;60699;48.946;8.412;2023-02-26T14:30:15;1.30;;;1.20;;
8349;SDS011;60699;48.946;8.412;2023-02-26T14:32:46;1.48;;;1.35;;
8349;SDS011;60699;48.946;8.412;2023-02-26T14:35:14;2.10;;;1.70;;
8349;SDS011;60699;48.946;8.412;2023-02-26T14:37:53;2.28;;;1.85;;
8349;SDS011;60699;48.946;8.412;2023-02-26T14:40:22;1.65;;;1.55;;
8349;SDS011;60699;48.946;8.412;2023-02-26T14:42:50;1.42;;;1.33;;
8349;SDS011;60699;48.946;8.412;2023-02-26T14:45:27;1.27;;;1.17;;
8349;SDS011;60699;48.946;8.412;2023-02-26T14:47:54;1.50;;;1.33;;
8349;SDS011;60699;48.946;8.412;2023-02-26T14:50:22;1.40;;;1.30;;
8349;SDS011;60699;48.946;8.412;2023-02-26T14:53:04;1.20;;;1.20;;
8349;SDS011;60699;48.946;8.412;2023-02-26T14:58:26;1.67;;;1.58;;
8349;SDS011;60699;48.946;8.412;2023-02-26T15:00:58;1.45;;;1.10;;
8349;SDS011;60699;48.946;8.412;2023-02-26T15:03:38;1.55;;;1.45;;
8349;SDS011;60699;48.946;8.412;2023-02-26T15:06:14;1.77;;;1.67;;
8349;SDS011;60699;48.946;8.412;2023-02-26T15:08:51;1.50;;;1.40;;
8349;SDS011;60699;48.946;8.412;2023-02-26T15:11:28;1.70;;;1.60;;
8349;SDS011;60699;48.946;8.412;2023-02-26T15:16:43;1.50;;;1.50;;
8349;SDS011;60699;48.946;8.412;2023-02-26T15:19:14;2.25;;;1.77;;
8349;SDS011;60699;48.946;8.412;2023-02-26T15:21:47;1.95;;;1.50;;
8349;SDS011;60699;48.946;8.412;2023-02-26T15:24:22;1.92;;;1.80;;
8349;SDS011;60699;48.946;8.412;2023-02-26T15:26:50;2.05;;;1.83;;
8349;SDS011;60699;48.946;8.412;2023-02-26T15:29:17;2.33;;;1.60;;
8349;SDS011;60699;48.946;8.412;2023-02-26T15:31:51;1.45;;;1.35;;
8349;SDS011;60699;48.946;8.412;2023-02-26T15:34:19;2.03;;;1.92;;
8349;SDS011;60699;48.946;8.412;2023-02-26T15:36:48;1.70;;;1.60;;